Time;durP1;ratioP1;P1;durP2;ratioP2;P2;SDS_P1;SDS_P2;PMS_P1;PMS_P2;Temp;Humidity;BMP_temperature;BMP_pressure;BME280_temperature;BME280_humidity;BME280_pressure;Samples;Min_cycle;Max_cycle;Signal;HPM_P1;HPM_P2
2022/02/02 00:00:17;;;;;;;42.50;30.80;;;7.70;99.90;;;;;;5069417;28;20453;-71
2022/02/02 00:02:49;;;;;;;40.43;31.83;;;7.60;99.90;;;;;;5067077;28;20459;-72
2022/02/02 00:05:23;;;;;;;33.23;29.97;;;7.60;99.90;;;;;;5062136;28;20561;-70
2022/02/02 00:07:55;;;;;;;31.07;27.80;;;7.60;99.90;;;;;;5060740;28;20505;-69
2022/02/02 00:11:00;;;;;;;33.63;29.73;;;7.60;99.90;;;;;;5063988;28;20472;-72
2022/02/02 00:13:38;;;;;;;40.83;28.63;;;7.50;99.90;;;;;;5064371;28;20539;-72
2022/02/02 00:16:34;;;;;;;32.77;29.33;;;7.40;99.90;;;;;;5063385;28;20467;-71
2022/02/02 00:19:09;;;;;;;42.27;28.43;;;7.40;99.90;;;;;;5060654;28;20477;-71
2022/02/02 00:21:43;;;;;;;38.27;28.73;;;7.40;99.90;;;;;;5066049;28;20457;-72
2022/02/02 00:24:20;;;;;;;39.27;29.63;;;7.40;99.90;;;;;;5067315;28;21074;-71
2022/02/02 00:26:48;;;;;;;34.67;28.47;;;7.40;99.90;;;;;;5066769;28;20901;-71
2022/02/02 00:29:16;;;;;;;42.07;29.53;;;7.40;99.90;;;;;;5064745;28;20502;-72
2022/02/02 00:31:44;;;;;;;38.27;28.90;;;7.40;99.90;;;;;;5060948;28;20529;-72
2022/02/02 00:34:17;;;;;;;46.47;31.90;;;7.40;99.90;;;;;;5065060;28;20466;-71
2022/02/02 00:36:48;;;;;;;35.43;28.33;;;7.30;99.90;;;;;;5062752;28;20464;-70
2022/02/02 00:39:15;;;;;;;40.37;28.30;;;7.40;99.90;;;;;;5063117;28;20466;-71
2022/02/02 00:41:42;;;;;;;33.30;28.67;;;7.30;99.90;;;;;;5061285;28;20747;-72
2022/02/02 00:44:09;;;;;;;48.57;29.20;;;7.40;99.90;;;;;;5063892;28;20567;-71
2022/02/02 00:46:37;;;;;;;47.67;27.50;;;7.40;99.90;;;;;;5064806;28;20469;-72
2022/02/02 00:49:05;;;;;;;46.80;29.20;;;7.40;99.90;;;;;;5063928;28;21040;-71
2022/02/02 00:51:40;;;;;;;38.43;28.70;;;7.40;99.90;;;;;;5065271;28;20516;-71
2022/02/02 00:54:08;;;;;;;36.70;27.83;;;7.30;99.90;;;;;;5065124;28;20473;-72
2022/02/02 00:56:35;;;;;;;55.43;27.83;;;7.30;99.90;;;;;;5066588;28;21046;-71
2022/02/02 00:59:02;;;;;;;44.33;28.33;;;7.30;99.90;;;;;;5064420;28;20462;-71
2022/02/02 01:01:29;;;;;;;36.53;26.90;;;7.20;99.90;;;;;;5064633;28;20631;-71
2022/02/02 01:03:56;;;;;;;37.10;26.37;;;7.20;99.90;;;;;;5063184;28;20506;-70
2022/02/02 01:06:24;;;;;;;39.33;27.10;;;7.10;99.90;;;;;;5065868;28;20526;-71
2022/02/02 01:09:11;;;;;;;38.33;25.83;;;7.20;99.90;;;;;;5063955;28;20497;-71
2022/02/02 01:12:05;;;;;;;38.73;25.20;;;7.20;99.90;;;;;;5066433;28;20469;-71
2022/02/02 01:17:45;;;;;;;47.27;28.63;;;7.40;99.90;;;;;;5060850;28;20453;-71
2022/02/02 01:20:32;;;;;;;46.90;28.60;;;7.40;99.90;;;;;;5062747;28;20803;-71
2022/02/02 01:28:31;;;;;;;50.70;30.57;;;7.40;99.90;;;;;;5064233;28;20455;-71
2022/02/02 01:30:59;;;;;;;47.73;29.20;;;7.50;99.90;;;;;;5068303;28;20542;-70
2022/02/02 01:33:26;;;;;;;46.10;30.67;;;7.50;99.90;;;;;;5063706;28;21106;-69
2022/02/02 01:35:53;;;;;;;39.33;30.37;;;7.50;99.90;;;;;;5064680;28;20547;-69
2022/02/02 01:38:22;;;;;;;45.77;29.70;;;7.50;99.90;;;;;;5064012;28;20458;-70
2022/02/02 01:40:54;;;;;;;47.73;30.03;;;7.50;99.90;;;;;;5064316;28;20466;-70
2022/02/02 01:43:25;;;;;;;43.60;29.23;;;7.50;99.90;;;;;;5058049;28;21040;-71
2022/02/02 01:45:55;;;;;;;39.70;28.43;;;7.40;99.90;;;;;;5065348;28;20468;-69
2022/02/02 01:48:31;;;;;;;57.57;28.40;;;7.40;99.90;;;;;;5064161;28;20465;-71
2022/02/02 01:51:16;;;;;;;48.27;29.50;;;7.40;99.90;;;;;;5065671;28;20986;-71
2022/02/02 01:53:50;;;;;;;46.70;28.00;;;7.40;99.90;;;;;;5065544;28;20758;-72
2022/02/02 01:56:19;;;;;;;42.90;28.50;;;7.30;99.90;;;;;;5068588;28;20816;-70
2022/02/02 01:59:00;;;;;;;41.80;28.10;;;7.30;99.90;;;;;;5065500;28;20459;-71
2022/02/02 02:01:27;;;;;;;47.77;29.30;;;7.30;99.90;;;;;;5068872;28;20460;-71
2022/02/02 02:03:54;;;;;;;38.33;28.00;;;7.40;99.90;;;;;;5068426;28;20497;-71
2022/02/02 02:06:21;;;;;;;42.77;27.40;;;7.40;99.90;;;;;;5067358;28;20459;-71
2022/02/02 02:08:48;;;;;;;43.90;29.23;;;7.40;99.90;;;;;;5066737;28;20502;-70
2022/02/02 02:11:18;;;;;;;33.27;25.50;;;7.30;99.90;;;;;;5065850;28;20862;-72
2022/02/02 02:14:29;;;;;;;46.93;26.13;;;7.40;99.90;;;;;;5068613;28;20472;-72
2022/02/02 02:16:48;;;;;;;38.70;24.10;;;7.30;99.90;;;;;;5062282;28;20458;-71
2022/02/02 02:19:15;;;;;;;29.47;24.30;;;7.30;99.90;;;;;;5067389;28;20464;-71
2022/02/02 02:21:44;;;;;;;35.90;23.37;;;7.30;99.90;;;;;;5071363;28;20469;-70
2022/02/02 02:24:13;;;;;;;39.57;22.93;;;7.30;99.90;;;;;;5067834;28;20481;-70
2022/02/02 02:26:41;;;;;;;28.20;21.70;;;7.20;99.90;;;;;;5065129;28;21018;-71
2022/02/02 02:29:26;;;;;;;34.03;21.20;;;7.30;99.90;;;;;;5066294;28;20999;-71
2022/02/02 02:32:10;;;;;;;49.57;22.87;;;7.30;99.90;;;;;;5069033;28;20457;-70
2022/02/02 02:34:54;;;;;;;36.87;21.30;;;7.30;99.90;;;;;;5067457;28;21058;-72
2022/02/02 02:40:18;;;;;;;31.90;18.40;;;7.40;99.90;;;;;;5060495;28;20725;-71
2022/02/02 02:56:44;;;;;;;35.77;19.13;;;7.50;99.90;;;;;;5068970;28;20471;-71
2022/02/02 02:59:15;;;;;;;44.60;19.97;;;7.50;99.90;;;;;;5066589;28;20459;-71
2022/02/02 03:02:20;;;;;;;44.90;18.97;;;7.50;99.90;;;;;;5067308;28;20455;-70
2022/02/02 03:29:56;;;;;;;34.77;19.17;;;7.60;99.90;;;;;;5066155;28;20998;-69
2022/02/02 03:32:52;;;;;;;27.50;17.30;;;7.60;99.90;;;;;;5067441;28;20826;-70
2022/02/02 03:49:14;;;;;;;31.43;17.00;;;7.60;99.90;;;;;;5067698;28;20463;-70
2022/02/02 03:49:34;;;;;;;34.80;17.40;;;7.60;99.90;;;;;;5062976;28;20470;-70
2022/02/02 03:55:04;;;;;;;32.67;18.03;;;7.50;99.90;;;;;;5026763;28;20482;-69
2022/02/02 03:57:38;;;;;;;40.87;18.30;;;7.50;99.90;;;;;;5065168;28;20496;-71
2022/02/02 04:00:22;;;;;;;31.60;17.87;;;7.50;99.90;;;;;;5065689;28;20471;-69
2022/02/02 04:05:38;;;;;;;27.10;19.83;;;7.40;99.90;;;;;;5049235;28;20474;-71
2022/02/02 04:08:21;;;;;;;39.27;18.97;;;7.40;99.90;;;;;;5068984;28;20474;-70
2022/02/02 04:10:48;;;;;;;27.23;17.77;;;7.50;99.90;;;;;;5060352;28;20542;-70
2022/02/02 04:13:23;;;;;;;25.57;17.50;;;7.40;99.90;;;;;;5065285;28;20550;-69
2022/02/02 04:38:32;;;;;;;32.53;18.07;;;7.40;99.90;;;;;;5066743;28;20473;-70
2022/02/02 04:52:15;;;;;;;31.00;16.90;;;7.30;99.90;;;;;;5066076;28;20460;-70
2022/02/02 04:54:46;;;;;;;27.53;16.80;;;7.30;99.90;;;;;;5066915;28;21009;-70
2022/02/02 05:00:04;;;;;;;40.60;17.10;;;7.40;99.90;;;;;;5047631;28;20849;-70
2022/02/02 05:08:25;;;;;;;25.60;17.50;;;7.40;99.90;;;;;;4996769;28;20477;-70
2022/02/02 05:11:07;;;;;;;28.83;16.40;;;7.30;99.90;;;;;;4999254;28;20466;-70
2022/02/02 05:16:33;;;;;;;23.83;17.90;;;7.30;99.90;;;;;;5041451;28;20467;-70
2022/02/02 05:19:23;;;;;;;31.63;17.10;;;7.30;99.90;;;;;;5041539;28;20564;-71
2022/02/02 05:22:21;;;;;;;26.63;17.00;;;7.30;99.90;;;;;;5040275;28;20489;-70
2022/02/02 05:44:21;;;;;;;29.10;17.23;;;7.30;99.90;;;;;;5045861;28;20534;-70
2022/02/02 05:49:49;;;;;;;35.27;17.57;;;7.40;99.90;;;;;;5045693;28;20504;-71
2022/02/02 05:52:16;;;;;;;32.23;16.80;;;7.40;99.90;;;;;;5045855;28;20474;-70
2022/02/02 05:54:43;;;;;;;33.43;17.50;;;7.40;99.90;;;;;;5046688;28;20508;-71
2022/02/02 05:57:13;;;;;;;33.77;17.33;;;7.40;99.90;;;;;;5044796;28;20451;-71
2022/02/02 05:59:42;;;;;;;44.07;18.53;;;7.60;99.90;;;;;;5045394;28;21002;-72
2022/02/02 06:02:12;;;;;;;34.00;17.80;;;7.50;99.90;;;;;;5045212;28;22751;-70
2022/02/02 06:04:46;;;;;;;28.23;16.87;;;7.50;99.90;;;;;;5045649;28;20512;-71
2022/02/02 06:07:13;;;;;;;46.00;17.17;;;7.60;99.90;;;;;;5045557;28;20454;-70
2022/02/02 06:09:47;;;;;;;44.27;18.57;;;7.50;99.90;;;;;;5041938;28;20489;-71
2022/02/02 06:12:20;;;;;;;32.73;16.90;;;7.50;99.90;;;;;;5053040;28;20467;-69
2022/02/02 06:14:50;;;;;;;27.83;17.30;;;7.60;99.90;;;;;;5074235;28;20494;-70
2022/02/02 06:17:17;;;;;;;30.40;16.63;;;7.50;99.90;;;;;;5067275;28;20497;-72
2022/02/02 06:19:43;;;;;;;37.60;17.60;;;7.50;99.90;;;;;;5049434;28;20458;-70
2022/02/02 06:22:16;;;;;;;28.63;16.80;;;7.60;99.90;;;;;;5041086;28;20458;-70
2022/02/02 06:24:48;;;;;;;23.90;17.37;;;7.60;99.90;;;;;;5041724;28;20493;-69
2022/02/02 06:27:23;;;;;;;29.77;16.93;;;7.60;99.90;;;;;;5041121;28;20567;-71
2022/02/02 06:30:00;;;;;;;33.33;16.27;;;7.60;99.90;;;;;;5041891;28;20951;-70
2022/02/02 06:32:28;;;;;;;23.63;16.07;;;7.60;99.90;;;;;;5041101;28;20473;-72
2022/02/02 06:35:02;;;;;;;30.53;16.17;;;7.70;99.90;;;;;;5040842;28;20518;-69
2022/02/02 06:37:30;;;;;;;26.17;17.03;;;7.60;99.90;;;;;;5040125;28;20571;-72
2022/02/02 06:39:57;;;;;;;34.57;17.63;;;7.60;99.90;;;;;;5041468;28;20469;-70
2022/02/02 06:42:25;;;;;;;31.73;16.80;;;7.60;99.90;;;;;;5038552;28;20493;-72
2022/02/02 06:44:53;;;;;;;36.97;17.60;;;7.50;99.90;;;;;;5046533;28;21246;-71
2022/02/02 06:47:23;;;;;;;42.00;18.13;;;7.60;99.90;;;;;;5053999;28;20483;-70
2022/02/02 06:49:50;;;;;;;23.20;17.63;;;7.60;99.90;;;;;;5036139;28;20455;-73
2022/02/02 06:52:28;;;;;;;28.53;17.00;;;7.60;99.90;;;;;;5031232;28;20467;-73
2022/02/02 06:55:05;;;;;;;30.17;17.50;;;7.50;99.90;;;;;;5034743;28;20473;-72
2022/02/02 06:57:48;;;;;;;34.00;16.47;;;7.50;99.90;;;;;;5032471;28;20458;-71
2022/02/02 07:00:28;;;;;;;28.53;17.93;;;7.50;99.90;;;;;;5035041;28;20462;-72
2022/02/02 07:03:13;;;;;;;30.00;18.60;;;7.50;99.90;;;;;;5034657;28;20564;-72
2022/02/02 07:05:50;;;;;;;27.50;17.10;;;7.50;99.90;;;;;;5033002;28;20579;-69
2022/02/02 07:08:31;;;;;;;36.70;17.70;;;7.50;99.90;;;;;;5034005;28;20457;-71
2022/02/02 07:11:10;;;;;;;25.03;16.90;;;7.40;99.90;;;;;;5035820;28;20470;-71
2022/02/02 07:13:53;;;;;;;26.07;17.23;;;7.30;99.90;;;;;;5036105;28;20462;-72
2022/02/02 07:16:33;;;;;;;24.00;16.77;;;7.40;99.90;;;;;;5033500;28;21043;-72
2022/02/02 07:19:11;;;;;;;31.10;18.20;;;7.30;99.90;;;;;;5037182;28;20938;-71
2022/02/02 07:24:56;;;;;;;49.30;18.70;;;7.40;99.90;;;;;;4997528;28;21024;-71
2022/02/02 07:27:48;;;;;;;24.33;17.27;;;7.40;99.90;;;;;;5037356;28;20471;-71
2022/02/02 07:30:25;;;;;;;33.37;18.80;;;7.50;99.90;;;;;;5038768;28;20475;-71
2022/02/02 07:33:04;;;;;;;37.20;17.60;;;7.50;99.90;;;;;;5035954;28;20468;-70
2022/02/02 07:35:47;;;;;;;31.23;16.70;;;7.50;99.90;;;;;;5038262;28;20477;-71
2022/02/02 07:38:16;;;;;;;32.60;18.00;;;7.50;99.90;;;;;;5037503;28;20480;-70
2022/02/02 07:40:46;;;;;;;35.80;17.30;;;7.50;99.90;;;;;;5039454;28;20554;-70
2022/02/02 07:43:22;;;;;;;41.90;18.23;;;7.40;99.90;;;;;;5038252;28;20497;-71
2022/02/02 07:45:58;;;;;;;30.77;17.43;;;7.50;99.90;;;;;;5038809;28;20493;-71
2022/02/02 07:48:24;;;;;;;30.17;18.37;;;7.50;99.90;;;;;;5038875;28;20899;-71
2022/02/02 07:50:54;;;;;;;36.03;17.80;;;7.50;99.90;;;;;;5038490;28;20476;-71
2022/02/02 07:53:25;;;;;;;33.40;17.40;;;7.60;99.90;;;;;;5037440;28;20800;-71
2022/02/02 07:55:55;;;;;;;30.67;17.40;;;7.60;99.90;;;;;;5038476;28;20472;-71
2022/02/02 07:58:24;;;;;;;32.60;18.60;;;7.60;99.90;;;;;;5038659;28;20579;-70
2022/02/02 08:00:53;;;;;;;42.90;19.07;;;7.60;99.90;;;;;;5063061;28;20897;-71
2022/02/02 08:03:20;;;;;;;29.80;17.67;;;7.50;99.90;;;;;;5063570;28;20458;-71
2022/02/02 08:05:49;;;;;;;41.00;18.83;;;7.60;99.90;;;;;;5057721;28;21012;-70
2022/02/02 08:08:29;;;;;;;27.03;17.00;;;7.60;99.90;;;;;;5050036;28;20544;-70
2022/02/02 08:10:57;;;;;;;40.30;18.43;;;7.60;99.90;;;;;;5037512;28;20472;-70
2022/02/02 08:13:26;;;;;;;35.63;18.50;;;7.80;99.90;;;;;;5038433;28;20470;-70
2022/02/02 08:15:59;;;;;;;29.13;18.20;;;7.70;99.90;;;;;;5038192;28;20838;-72
2022/02/02 08:18:26;;;;;;;31.40;18.00;;;7.60;99.90;;;;;;5035296;28;20471;-72
2022/02/02 08:20:55;;;;;;;27.83;17.57;;;7.50;99.90;;;;;;5036883;28;20454;-69
2022/02/02 08:23:22;;;;;;;25.90;17.10;;;7.40;99.90;;;;;;5056573;28;22170;-72
2022/02/02 08:25:49;;;;;;;36.27;17.50;;;7.20;99.90;;;;;;5058689;28;20516;-70
2022/02/02 08:28:18;;;;;;;37.23;17.23;;;7.20;99.90;;;;;;5060473;28;20460;-70
2022/02/02 08:30:46;;;;;;;38.47;16.67;;;7.30;99.90;;;;;;5037746;28;20524;-71
2022/02/02 08:33:19;;;;;;;39.83;19.20;;;7.30;99.90;;;;;;5053218;28;20465;-73
2022/02/02 08:35:50;;;;;;;30.73;17.37;;;7.40;99.90;;;;;;5053636;28;20465;-71
2022/02/02 08:38:30;;;;;;;34.03;17.30;;;7.40;99.90;;;;;;5033133;28;20965;-71
2022/02/02 08:41:00;;;;;;;36.87;18.47;;;7.50;99.90;;;;;;5037811;28;20672;-71
2022/02/02 08:43:31;;;;;;;34.40;16.80;;;7.60;99.90;;;;;;5038069;28;21008;-71
2022/02/02 08:46:04;;;;;;;32.83;17.60;;;7.60;99.90;;;;;;5038150;28;21049;-70
2022/02/02 08:48:33;;;;;;;39.43;19.53;;;7.70;99.90;;;;;;5048499;28;20470;-70
2022/02/02 08:51:04;;;;;;;32.10;18.57;;;7.80;99.90;;;;;;5061115;28;20470;-70
2022/02/02 08:53:38;;;;;;;24.40;17.50;;;7.90;99.90;;;;;;5061991;28;20470;-72
2022/02/02 08:56:18;;;;;;;37.73;17.97;;;8.10;99.90;;;;;;5056181;28;20469;-70
2022/02/02 08:58:46;;;;;;;31.27;17.30;;;8.20;99.90;;;;;;5038080;28;20462;-71
2022/02/02 09:01:20;;;;;;;38.67;17.23;;;8.10;99.90;;;;;;5039320;28;20969;-71
2022/02/02 09:06:33;;;;;;;32.30;18.37;;;8.20;99.90;;;;;;5037599;28;20486;-70
2022/02/02 09:09:09;;;;;;;30.13;18.43;;;8.30;99.90;;;;;;5039685;28;20578;-70
2022/02/02 09:20:21;;;;;;;34.63;18.50;;;8.50;99.90;;;;;;5039280;28;20474;-71
2022/02/02 09:23:26;;;;;;;35.17;20.20;;;8.50;99.90;;;;;;5037733;28;20949;-70
2022/02/02 09:26:13;;;;;;;34.50;19.30;;;8.60;99.90;;;;;;5039253;28;20779;-70
2022/02/02 09:31:50;;;;;;;30.43;17.77;;;8.60;99.90;;;;;;4955685;28;20990;-71
2022/02/02 09:34:19;;;;;;;33.57;18.83;;;8.70;99.90;;;;;;5032853;28;20879;-70
2022/02/02 09:36:47;;;;;;;39.43;18.27;;;8.80;99.90;;;;;;5042578;28;20992;-70
2022/02/02 09:39:19;;;;;;;23.73;18.80;;;8.90;99.90;;;;;;5061239;28;20556;-73
2022/02/02 09:41:49;;;;;;;40.90;19.33;;;8.90;99.90;;;;;;5059885;28;20470;-71
2022/02/02 09:44:20;;;;;;;29.30;19.03;;;8.90;99.90;;;;;;5048115;28;20459;-70
2022/02/02 09:46:55;;;;;;;38.77;19.53;;;9.00;99.90;;;;;;5037577;28;20540;-70
2022/02/02 09:49:28;;;;;;;23.70;19.80;;;9.10;99.90;;;;;;5038736;28;20871;-71
2022/02/02 09:52:01;;;;;;;26.77;18.53;;;9.20;99.90;;;;;;5038500;28;20557;-71
2022/02/02 09:54:35;;;;;;;29.10;18.40;;;9.30;99.90;;;;;;5038537;28;20958;-70
2022/02/02 09:57:30;;;;;;;36.03;19.43;;;9.30;99.90;;;;;;5038942;28;20544;-70
2022/02/02 10:00:15;;;;;;;41.53;19.33;;;9.40;99.90;;;;;;5033284;28;20482;-71
2022/02/02 10:03:08;;;;;;;29.47;19.73;;;9.20;99.90;;;;;;5037481;28;20553;-71
2022/02/02 10:05:46;;;;;;;35.00;19.70;;;9.30;99.90;;;;;;5034770;28;20499;-72
2022/02/02 10:11:24;;;;;;;32.63;18.97;;;9.30;99.90;;;;;;5055064;28;20569;-70
2022/02/02 10:14:14;;;;;;;34.50;19.13;;;9.40;99.90;;;;;;5052605;28;20605;-70
2022/02/02 10:16:45;;;;;;;31.67;18.80;;;9.50;99.90;;;;;;5039500;28;20468;-71
2022/02/02 10:19:14;;;;;;;32.77;18.53;;;9.70;99.90;;;;;;5040369;28;20996;-71
2022/02/02 10:21:41;;;;;;;35.90;18.27;;;9.70;99.90;;;;;;5040608;28;20467;-70
2022/02/02 10:24:09;;;;;;;32.37;19.70;;;9.70;99.90;;;;;;5040091;28;21226;-71
2022/02/02 10:26:45;;;;;;;29.20;19.03;;;9.70;99.90;;;;;;5037381;28;20513;-70
2022/02/02 10:29:15;;;;;;;20.80;18.00;;;9.70;99.90;;;;;;5058527;28;20474;-72
2022/02/02 10:31:43;;;;;;;32.80;18.37;;;9.50;99.90;;;;;;5063242;28;20817;-70
2022/02/02 10:34:12;;;;;;;42.27;19.10;;;9.60;99.90;;;;;;5050003;28;20463;-72
2022/02/02 10:36:39;;;;;;;38.03;19.80;;;9.60;99.90;;;;;;5037552;28;20476;-70
2022/02/02 10:39:12;;;;;;;33.13;18.80;;;9.50;99.90;;;;;;5039627;28;20801;-71
2022/02/02 10:41:47;;;;;;;38.03;17.57;;;9.60;99.90;;;;;;5036510;28;20469;-70
2022/02/02 10:44:17;;;;;;;27.07;18.70;;;9.70;99.90;;;;;;5038960;28;20884;-70
2022/02/02 10:46:53;;;;;;;48.40;19.07;;;9.80;99.90;;;;;;5039045;28;20485;-70
2022/02/02 10:49:27;;;;;;;41.07;19.60;;;10.00;99.90;;;;;;5039425;28;20499;-70
2022/02/02 10:52:00;;;;;;;32.90;18.93;;;10.00;99.90;;;;;;5040091;28;20549;-71
2022/02/02 10:54:35;;;;;;;42.53;20.40;;;10.20;99.90;;;;;;5039101;28;20980;-71
2022/02/02 10:57:15;;;;;;;27.67;17.87;;;10.10;99.90;;;;;;5039280;28;20867;-71
2022/02/02 10:59:59;;;;;;;33.00;19.13;;;10.10;99.90;;;;;;5038782;28;20463;-71
2022/02/02 11:07:59;;;;;;;17.87;15.90;;;10.00;99.90;;;;;;5061643;28;20454;-70
2022/02/02 11:10:29;;;;;;;34.27;16.23;;;10.30;99.90;;;;;;5038710;28;20482;-71
2022/02/02 11:12:58;;;;;;;24.93;17.40;;;10.90;99.90;;;;;;5039366;28;21621;-71
2022/02/02 11:15:32;;;;;;;27.53;16.63;;;11.00;99.90;;;;;;5038676;28;20473;-71
2022/02/02 11:18:07;;;;;;;19.57;16.17;;;11.00;99.90;;;;;;5038740;28;20466;-70
2022/02/02 11:20:37;;;;;;;25.03;18.00;;;11.10;99.90;;;;;;5038740;28;21222;-70
2022/02/02 11:23:05;;;;;;;29.80;17.70;;;11.30;99.90;;;;;;5039366;28;20459;-72
2022/02/02 11:25:39;;;;;;;30.37;17.80;;;11.20;99.90;;;;;;5038428;28;20471;-70
2022/02/02 11:28:25;;;;;;;30.13;17.00;;;11.10;99.90;;;;;;5037840;28;21582;-70
2022/02/02 11:31:06;;;;;;;22.90;16.90;;;10.50;99.90;;;;;;5039208;28;20520;-70
2022/02/02 11:33:52;;;;;;;20.20;18.17;;;10.70;99.90;;;;;;5037718;28;20474;-70
2022/02/02 11:36:31;;;;;;;23.87;16.80;;;10.70;99.90;;;;;;5035974;28;20449;-70
2022/02/02 11:39:00;;;;;;;27.20;17.53;;;10.80;99.90;;;;;;5035255;28;20473;-71
2022/02/02 11:44:25;;;;;;;29.17;17.20;;;11.10;99.90;;;;;;5037438;28;20471;-71
2022/02/02 11:47:03;;;;;;;24.57;17.87;;;11.00;99.90;;;;;;5035703;28;20502;-73
2022/02/02 11:49:45;;;;;;;22.60;16.33;;;11.10;99.90;;;;;;5038171;28;20455;-70
2022/02/02 11:52:38;;;;;;;27.03;17.40;;;11.00;99.90;;;;;;5038483;28;21287;-72
2022/02/02 11:55:08;;;;;;;26.00;18.40;;;11.20;99.90;;;;;;5038402;28;20471;-71
2022/02/02 11:58:01;;;;;;;28.07;18.23;;;11.30;99.90;;;;;;5037762;28;20463;-71
2022/02/02 12:00:36;;;;;;;26.00;18.40;;;11.30;99.90;;;;;;5034780;28;20684;-71
2022/02/02 12:06:04;;;;;;;23.93;18.00;;;10.60;99.90;;;;;;5030005;28;20807;-71
2022/02/02 12:08:44;;;;;;;29.00;18.27;;;10.40;99.90;;;;;;5034585;28;20940;-71
2022/02/02 12:11:38;;;;;;;24.83;17.97;;;10.60;99.90;;;;;;5037607;28;20466;-72
2022/02/02 12:45:48;;;;;;;21.50;19.23;;;11.40;99.90;;;;;;5037214;28;20948;-71
2022/02/02 12:48:15;;;;;;;25.00;18.37;;;11.10;99.90;;;;;;5036400;28;20519;-71
2022/02/02 12:54:01;;;;;;;20.63;17.77;;;11.50;99.90;;;;;;5037739;28;20474;-71
2022/02/02 12:56:34;;;;;;;18.90;17.23;;;11.40;99.90;;;;;;5037256;28;20904;-73
2022/02/02 13:02:07;;;;;;;20.20;18.40;;;11.30;99.90;;;;;;5036143;28;21222;-73
2022/02/02 13:04:36;;;;;;;21.50;18.40;;;11.40;99.90;;;;;;5037158;28;21060;-71
2022/02/02 13:07:11;;;;;;;20.90;17.40;;;11.30;99.90;;;;;;5036468;28;20525;-72
2022/02/02 13:09:38;;;;;;;20.50;18.40;;;11.10;99.90;;;;;;5036520;28;20475;-72
2022/02/02 13:12:33;;;;;;;24.23;17.97;;;11.00;99.90;;;;;;5041931;28;20992;-72
2022/02/02 13:17:52;;;;;;;19.83;17.70;;;11.10;99.90;;;;;;5060074;28;20466;-70
2022/02/02 13:20:35;;;;;;;25.07;18.90;;;11.30;99.90;;;;;;5059805;28;20474;-70
2022/02/02 13:23:06;;;;;;;28.70;18.63;;;11.80;99.90;;;;;;5047409;28;20508;-71
2022/02/02 13:25:34;;;;;;;32.43;19.17;;;11.90;99.90;;;;;;5059763;28;20465;-71
2022/02/02 13:28:02;;;;;;;22.20;17.80;;;11.60;99.90;;;;;;5056821;28;20490;-70
2022/02/02 13:30:42;;;;;;;23.33;18.23;;;11.50;99.90;;;;;;5040317;28;20855;-72
2022/02/02 13:33:25;;;;;;;20.67;18.00;;;11.30;99.90;;;;;;5036613;28;20549;-72
2022/02/02 13:36:22;;;;;;;23.60;19.00;;;11.40;99.90;;;;;;5036309;28;20470;-70
2022/02/02 13:44:45;;;;;;;19.17;17.23;;;12.70;99.90;;;;;;5035641;28;20543;-71
2022/02/02 13:47:38;;;;;;;30.27;18.13;;;13.10;99.90;;;;;;5034623;28;20496;-69
2022/02/02 13:56:46;;;;;;;25.20;17.93;;;13.20;99.90;;;;;;4999551;28;20484;-73
2022/02/02 13:59:38;;;;;;;19.57;17.43;;;13.30;99.90;;;;;;5039746;28;20477;-70
2022/02/02 14:02:20;;;;;;;23.07;17.87;;;13.50;99.90;;;;;;5039667;28;20999;-72
2022/02/02 14:05:04;;;;;;;17.87;16.27;;;13.40;99.90;;;;;;5039607;28;20834;-70
2022/02/02 14:07:46;;;;;;;20.30;16.63;;;13.20;99.90;;;;;;5039419;28;20613;-70
2022/02/02 14:10:31;;;;;;;31.30;18.33;;;13.10;99.90;;;;;;5040074;28;21359;-71
2022/02/02 14:32:11;;;;;;;21.17;18.27;;;13.00;99.90;;;;;;5039474;28;20570;-72
2022/02/02 14:34:37;;;;;;;19.50;16.80;;;12.40;99.90;;;;;;5038905;28;20463;-71
2022/02/02 14:37:12;;;;;;;19.27;17.17;;;12.10;99.90;;;;;;5058285;28;20463;-69
2022/02/02 14:39:48;;;;;;;22.90;18.00;;;11.90;99.90;;;;;;5059031;28;20540;-69
2022/02/02 14:42:21;;;;;;;24.87;18.47;;;11.60;99.90;;;;;;5039718;28;20490;-70
2022/02/02 14:44:48;;;;;;;26.80;18.00;;;11.30;99.90;;;;;;5040167;28;21055;-69
2022/02/02 14:47:16;;;;;;;23.57;17.53;;;11.20;99.90;;;;;;5040368;28;20494;-72
2022/02/02 14:49:50;;;;;;;23.40;18.47;;;10.90;99.90;;;;;;5040217;28;21097;-69
2022/02/02 14:52:27;;;;;;;34.80;17.80;;;10.90;99.90;;;;;;5040827;28;20493;-69
2022/02/02 14:55:36;;;;;;;30.10;18.73;;;11.00;99.90;;;;;;5040148;28;20605;-69
2022/02/02 15:09:23;;;;;;;29.93;17.23;;;10.10;99.90;;;;;;5038899;28;20880;-71
2022/02/02 15:28:21;;;;;;;37.90;18.70;;;9.40;99.90;;;;;;5039308;28;20486;-69
2022/02/02 15:30:55;;;;;;;19.97;17.60;;;9.30;99.90;;;;;;5039062;28;20471;-69
2022/02/02 15:33:25;;;;;;;40.93;17.80;;;9.30;99.90;;;;;;5037466;28;20523;-71
2022/02/02 15:36:04;;;;;;;26.57;18.17;;;9.20;99.90;;;;;;5037297;28;21260;-70
2022/02/02 15:38:32;;;;;;;27.47;19.00;;;9.20;99.90;;;;;;5031312;28;20469;-70
2022/02/02 15:41:03;;;;;;;23.40;17.47;;;9.10;99.90;;;;;;5035925;28;20478;-69
2022/02/02 15:43:38;;;;;;;36.63;18.87;;;9.10;99.90;;;;;;5037838;28;20521;-71
2022/02/02 15:54:50;;;;;;;20.27;17.37;;;8.70;99.90;;;;;;5038708;28;20474;-69
2022/02/02 16:00:53;;;;;;;29.07;19.37;;;8.50;99.90;;;;;;4998404;28;21211;-71
2022/02/02 16:03:12;;;;;;;21.43;18.67;;;8.30;99.90;;;;;;5041736;28;20813;-69
2022/02/02 16:05:45;;;;;;;32.90;19.53;;;8.20;99.90;;;;;;5042211;28;21053;-69
2022/02/02 16:08:15;;;;;;;21.43;19.53;;;8.10;99.90;;;;;;5041583;28;20871;-69
2022/02/02 16:10:51;;;;;;;21.53;19.67;;;8.10;99.90;;;;;;5037749;28;20801;-71
2022/02/02 16:13:39;;;;;;;21.53;19.20;;;8.00;99.90;;;;;;5036392;28;21024;-69
2022/02/02 16:16:15;;;;;;;26.87;18.13;;;7.90;99.90;;;;;;5040934;28;20562;-69
2022/02/02 16:18:48;;;;;;;24.07;19.43;;;8.00;99.90;;;;;;5039853;28;20973;-72
2022/02/02 16:32:45;;;;;;;26.13;17.83;;;8.50;99.90;;;;;;5041037;28;20484;-69
2022/02/02 16:35:39;;;;;;;22.00;18.23;;;8.50;99.90;;;;;;5041507;28;20506;-69
2022/02/02 16:38:10;;;;;;;20.67;18.60;;;8.40;99.90;;;;;;5041144;28;20510;-71
2022/02/02 16:40:39;;;;;;;21.23;16.83;;;8.40;99.90;;;;;;5040362;28;20567;-70
2022/02/02 16:43:13;;;;;;;24.10;19.30;;;8.40;99.90;;;;;;5040662;28;20504;-69
2022/02/02 16:45:42;;;;;;;29.03;18.33;;;8.40;99.90;;;;;;5040725;28;20467;-69
2022/02/02 16:48:09;;;;;;;26.03;18.87;;;8.20;99.90;;;;;;5038085;28;20847;-69
2022/02/02 16:50:40;;;;;;;23.83;17.73;;;8.30;99.90;;;;;;5040807;28;21900;-70
2022/02/02 16:53:12;;;;;;;20.60;18.40;;;8.30;99.90;;;;;;5041103;28;20894;-70
2022/02/02 16:55:46;;;;;;;22.00;17.73;;;8.30;99.90;;;;;;5040822;28;20466;-69
2022/02/02 17:24:15;;;;;;;23.80;17.50;;;8.30;99.90;;;;;;5041327;28;20459;-69
2022/02/02 17:31:40;;;;;;;21.70;19.50;;;7.60;99.90;;;;;;5045142;28;20548;-70
2022/02/02 17:34:16;;;;;;;20.87;18.77;;;7.60;99.90;;;;;;5044998;28;20458;-70
2022/02/02 17:36:49;;;;;;;21.83;19.43;;;7.60;99.90;;;;;;5044495;28;20469;-71
2022/02/02 17:39:19;;;;;;;25.00;19.30;;;7.50;99.90;;;;;;5044721;28;20926;-69
2022/02/02 18:12:15;;;;;;;24.77;21.97;;;7.30;99.90;;;;;;5034953;28;20487;-70
2022/02/02 18:20:44;;;;;;;24.40;22.00;;;7.50;99.90;;;;;;5072117;28;20462;-70
2022/02/02 18:23:20;;;;;;;23.40;20.30;;;7.60;99.90;;;;;;5080773;28;20493;-71
2022/02/02 18:25:52;;;;;;;31.70;21.30;;;7.50;99.90;;;;;;5099388;28;20461;-71
2022/02/02 18:28:26;;;;;;;29.90;21.37;;;7.60;99.90;;;;;;5101798;28;20461;-71
2022/02/02 18:31:06;;;;;;;24.17;21.70;;;7.70;99.90;;;;;;5091998;28;20460;-73
2022/02/02 18:33:47;;;;;;;24.27;21.77;;;7.90;99.90;;;;;;5084506;28;20560;-70
2022/02/02 18:36:25;;;;;;;25.10;22.70;;;7.90;99.90;;;;;;5092447;28;20506;-70
2022/02/02 18:40:01;;;;;;;25.17;22.40;;;8.00;99.90;;;;;;5075388;28;20859;-70
2022/02/02 18:47:39;;;;;;;24.23;21.93;;;8.30;99.90;;;;;;5073199;28;20521;-72
2022/02/02 18:50:20;;;;;;;25.17;21.50;;;8.30;99.90;;;;;;5073389;28;20539;-71
2022/02/02 18:55:47;;;;;;;26.80;23.17;;;8.50;99.90;;;;;;5061872;28;20511;-70
2022/02/02 18:58:23;;;;;;;25.03;22.57;;;8.50;99.90;;;;;;5057515;28;20636;-70
2022/02/02 19:01:08;;;;;;;24.40;22.07;;;8.60;99.90;;;;;;5061935;28;20466;-70
2022/02/02 19:31:36;;;;;;;33.87;24.07;;;8.90;99.90;;;;;;5056569;28;21388;-70
2022/02/02 19:56:26;;;;;;;27.13;24.20;;;9.10;99.90;;;;;;5019007;28;20470;-70
2022/02/02 20:01:54;;;;;;;28.80;26.13;;;9.10;99.90;;;;;;5058397;28;21031;-72
2022/02/02 20:04:48;;;;;;;30.90;27.27;;;9.10;99.90;;;;;;5057875;28;20571;-70
2022/02/02 20:07:30;;;;;;;28.43;25.00;;;9.10;99.90;;;;;;5056977;28;20462;-70
2022/02/02 20:10:03;;;;;;;27.90;25.03;;;9.10;99.90;;;;;;5056657;28;20516;-70
2022/02/02 20:12:51;;;;;;;34.80;27.10;;;9.00;99.90;;;;;;5057970;28;20466;-72